sensor_id;sensor_type;location;lat;lon;timestamp;P1;durP1;ratioP1;P2;durP2;ratioP2
8466;SDS011;4270;48.148;11.648;2022-08-03T08:31:29;1.50;;;1.40;;
8466;SDS011;4270;48.148;11.648;2022-08-03T08:33:54;3.27;;;1.90;;
8466;SDS011;4270;48.148;11.648;2022-08-03T08:36:20;2.00;;;1.40;;
8466;SDS011;4270;48.148;11.648;2022-08-03T08:38:45;2.40;;;1.47;;
8466;SDS011;4270;48.148;11.648;2022-08-03T08:41:12;1.83;;;1.50;;
8466;SDS011;4270;48.148;11.648;2022-08-03T08:43:37;3.30;;;1.40;;
8466;SDS011;4270;48.148;11.648;2022-08-03T08:46:02;3.33;;;1.60;;
8466;SDS011;4270;48.148;11.648;2022-08-03T08:48:29;1.90;;;1.33;;
8466;SDS011;4270;48.148;11.648;2022-08-03T08:50:55;5.33;;;2.00;;
8466;SDS011;4270;48.148;11.648;2022-08-03T08:53:20;1.97;;;1.77;;
8466;SDS011;4270;48.148;11.648;2022-08-03T08:55:46;3.00;;;1.63;;
8466;SDS011;4270;48.148;11.648;2022-08-03T08:58:12;1.90;;;1.80;;
8466;SDS011;4270;48.148;11.648;2022-08-03T09:00:38;1.50;;;1.40;;
8466;SDS011;4270;48.148;11.648;2022-08-03T09:03:03;2.43;;;1.43;;
8466;SDS011;4270;48.148;11.648;2022-08-03T09:05:28;2.27;;;1.30;;
8466;SDS011;4270;48.148;11.648;2022-08-03T09:07:57;1.70;;;1.23;;
8466;SDS011;4270;48.148;11.648;2022-08-03T09:10:22;5.90;;;1.43;;
8466;SDS011;4270;48.148;11.648;2022-08-03T09:12:48;1.57;;;1.33;;
8466;SDS011;4270;48.148;11.648;2022-08-03T09:15:24;1.97;;;1.30;;
8466;SDS011;4270;48.148;11.648;2022-08-03T09:17:51;3.50;;;1.13;;
8466;SDS011;4270;48.148;11.648;2022-08-03T09:20:17;1.47;;;1.37;;
8466;SDS011;4270;48.148;11.648;2022-08-03T09:22:53;3.73;;;1.30;;
8466;SDS011;4270;48.148;11.648;2022-08-03T09:25:18;2.17;;;1.27;;
8466;SDS011;4270;48.148;11.648;2022-08-03T09:27:44;1.50;;;1.40;;
8466;SDS011;4270;48.148;11.648;2022-08-03T09:30:13;1.90;;;1.57;;
8466;SDS011;4270;48.148;11.648;2022-08-03T09:32:38;1.70;;;1.37;;
8466;SDS011;4270;48.148;11.648;2022-08-03T09:35:04;1.40;;;1.30;;
8466;SDS011;4270;48.148;11.648;2022-08-03T09:37:29;3.53;;;1.57;;
8466;SDS011;4270;48.148;11.648;2022-08-03T09:39:54;1.27;;;1.17;;
8466;SDS011;4270;48.148;11.648;2022-08-03T09:42:20;1.10;;;1.00;;
8466;SDS011;4270;48.148;11.648;2022-08-03T09:44:49;1.67;;;1.07;;
8466;SDS011;4270;48.148;11.648;2022-08-03T09:47:16;2.00;;;1.37;;
8466;SDS011;4270;48.148;11.648;2022-08-03T09:50:01;8.17;;;1.90;;
8466;SDS011;4270;48.148;11.648;2022-08-03T09:52:30;1.23;;;1.13;;
8466;SDS011;4270;48.148;11.648;2022-08-03T09:54:56;1.40;;;1.20;;
8466;SDS011;4270;48.148;11.648;2022-08-03T09:57:22;2.20;;;1.23;;
8466;SDS011;4270;48.148;11.648;2022-08-03T09:59:47;2.20;;;1.20;;
8466;SDS011;4270;48.148;11.648;2022-08-03T10:02:23;2.23;;;1.23;;
8466;SDS011;4270;48.148;11.648;2022-08-03T10:04:49;1.50;;;1.40;;
8466;SDS011;4270;48.148;11.648;2022-08-03T10:07:18;1.40;;;1.20;;
8466;SDS011;4270;48.148;11.648;2022-08-03T10:12:18;0.97;;;0.90;;
8466;SDS011;4270;48.148;11.648;2022-08-03T10:14:43;2.83;;;1.00;;
8466;SDS011;4270;48.148;11.648;2022-08-03T10:17:10;1.10;;;1.00;;
8466;SDS011;4270;48.148;11.648;2022-08-03T10:19:35;1.17;;;1.10;;
8466;SDS011;4270;48.148;11.648;2022-08-03T10:22:06;2.30;;;1.23;;
8466;SDS011;4270;48.148;11.648;2022-08-03T10:24:33;1.80;;;1.27;;
8466;SDS011;4270;48.148;11.648;2022-08-03T10:27:03;1.40;;;1.30;;
8466;SDS011;4270;48.148;11.648;2022-08-03T10:29:31;1.60;;;1.20;;
8466;SDS011;4270;48.148;11.648;2022-08-03T10:31:57;1.20;;;1.10;;
8466;SDS011;4270;48.148;11.648;2022-08-03T10:34:23;1.10;;;1.00;;
8466;SDS011;4270;48.148;11.648;2022-08-03T10:36:49;3.33;;;1.43;;
8466;SDS011;4270;48.148;11.648;2022-08-03T10:39:17;1.10;;;1.10;;
8466;SDS011;4270;48.148;11.648;2022-08-03T10:41:42;3.50;;;1.60;;
8466;SDS011;4270;48.148;11.648;2022-08-03T10:44:12;1.10;;;1.00;;
8466;SDS011;4270;48.148;11.648;2022-08-03T10:46:39;1.10;;;1.10;;
8466;SDS011;4270;48.148;11.648;2022-08-03T10:49:05;1.20;;;1.10;;
8466;SDS011;4270;48.148;11.648;2022-08-03T10:51:31;2.07;;;1.10;;
8466;SDS011;4270;48.148;11.648;2022-08-03T10:53:57;1.40;;;1.10;;
8466;SDS011;4270;48.148;11.648;2022-08-03T10:59:19;1.27;;;1.17;;
8466;SDS011;4270;48.148;11.648;2022-08-03T11:02:00;1.73;;;1.23;;
8466;SDS011;4270;48.148;11.648;2022-08-03T11:04:26;1.30;;;1.17;;
8466;SDS011;4270;48.148;11.648;2022-08-03T11:09:40;1.20;;;1.10;;
8466;SDS011;4270;48.148;11.648;2022-08-03T11:12:18;1.30;;;1.20;;
8466;SDS011;4270;48.148;11.648;2022-08-03T11:14:45;2.47;;;1.50;;
8466;SDS011;4270;48.148;11.648;2022-08-03T11:17:11;1.13;;;1.03;;
8466;SDS011;4270;48.148;11.648;2022-08-03T11:20:09;4.33;;;1.10;;
8466;SDS011;4270;48.148;11.648;2022-08-03T11:22:46;2.10;;;1.10;;
8466;SDS011;4270;48.148;11.648;2022-08-03T11:25:12;1.17;;;1.00;;
8466;SDS011;4270;48.148;11.648;2022-08-03T11:27:39;2.43;;;1.20;;
8466;SDS011;4270;48.148;11.648;2022-08-03T11:37:32;1.20;;;1.10;;
8466;SDS011;4270;48.148;11.648;2022-08-03T11:39:57;2.07;;;1.00;;
8466;SDS011;4270;48.148;11.648;2022-08-03T11:44:54;1.23;;;1.13;;
8466;SDS011;4270;48.148;11.648;2022-08-03T11:47:20;1.20;;;1.10;;
8466;SDS011;4270;48.148;11.648;2022-08-03T11:49:46;1.30;;;1.20;;
8466;SDS011;4270;48.148;11.648;2022-08-03T11:52:12;1.17;;;1.00;;
8466;SDS011;4270;48.148;11.648;2022-08-03T11:54:37;1.00;;;0.97;;
8466;SDS011;4270;48.148;11.648;2022-08-03T11:57:03;1.83;;;1.13;;
8466;SDS011;4270;48.148;11.648;2022-08-03T11:59:31;1.67;;;1.30;;
8466;SDS011;4270;48.148;11.648;2022-08-03T12:02:07;1.40;;;1.30;;
8466;SDS011;4270;48.148;11.648;2022-08-03T12:04:48;1.30;;;1.20;;
8466;SDS011;4270;48.148;11.648;2022-08-03T12:07:14;2.27;;;0.90;;
8466;SDS011;4270;48.148;11.648;2022-08-03T12:09:39;1.33;;;1.10;;
8466;SDS011;4270;48.148;11.648;2022-08-03T12:12:05;1.33;;;1.10;;
8466;SDS011;4270;48.148;11.648;2022-08-03T12:14:31;1.40;;;1.30;;
8466;SDS011;4270;48.148;11.648;2022-08-03T12:16:56;2.13;;;1.30;;
8466;SDS011;4270;48.148;11.648;2022-08-03T12:19:21;1.73;;;1.43;;
8466;SDS011;4270;48.148;11.648;2022-08-03T12:21:47;3.47;;;2.10;;
8466;SDS011;4270;48.148;11.648;2022-08-03T12:24:12;2.47;;;1.40;;
8466;SDS011;4270;48.148;11.648;2022-08-03T12:26:42;1.90;;;1.37;;
8466;SDS011;4270;48.148;11.648;2022-08-03T12:29:07;2.93;;;1.17;;
8466;SDS011;4270;48.148;11.648;2022-08-03T12:31:32;2.55;;;1.50;;
8466;SDS011;4270;48.148;11.648;2022-08-03T12:34:00;1.30;;;1.20;;
8466;SDS011;4270;48.148;11.648;2022-08-03T12:36:26;2.33;;;1.30;;
8466;SDS011;4270;48.148;11.648;2022-08-03T12:38:57;3.23;;;1.40;;
8466;SDS011;4270;48.148;11.648;2022-08-03T12:41:35;1.47;;;1.10;;
8466;SDS011;4270;48.148;11.648;2022-08-03T12:44:02;0.87;;;0.87;;
8466;SDS011;4270;48.148;11.648;2022-08-03T12:46:37;1.00;;;0.90;;
8466;SDS011;4270;48.148;11.648;2022-08-03T12:49:09;1.90;;;1.33;;
8466;SDS011;4270;48.148;11.648;2022-08-03T12:51:56;1.77;;;1.10;;
8466;SDS011;4270;48.148;11.648;2022-08-03T12:54:22;1.70;;;1.60;;
8466;SDS011;4270;48.148;11.648;2022-08-03T12:59:24;1.43;;;1.33;;
8466;SDS011;4270;48.148;11.648;2022-08-03T13:01:50;2.53;;;1.07;;
8466;SDS011;4270;48.148;11.648;2022-08-03T13:04:24;2.57;;;1.93;;
8466;SDS011;4270;48.148;11.648;2022-08-03T13:06:56;2.17;;;1.30;;
8466;SDS011;4270;48.148;11.648;2022-08-03T13:09:21;2.00;;;1.60;;
8466;SDS011;4270;48.148;11.648;2022-08-03T13:12:02;1.50;;;1.40;;
8466;SDS011;4270;48.148;11.648;2022-08-03T13:14:28;3.30;;;1.50;;
8466;SDS011;4270;48.148;11.648;2022-08-03T13:16:53;1.93;;;1.50;;
8466;SDS011;4270;48.148;11.648;2022-08-03T13:19:18;2.27;;;1.83;;
8466;SDS011;4270;48.148;11.648;2022-08-03T13:21:43;3.47;;;1.70;;
8466;SDS011;4270;48.148;11.648;2022-08-03T13:24:08;2.40;;;1.80;;
8466;SDS011;4270;48.148;11.648;2022-08-03T13:26:34;1.65;;;1.55;;
8466;SDS011;4270;48.148;11.648;2022-08-03T13:28:59;4.05;;;1.35;;
8466;SDS011;4270;48.148;11.648;2022-08-03T13:31:24;2.20;;;1.30;;
8466;SDS011;4270;48.148;11.648;2022-08-03T13:33:49;3.13;;;1.37;;
8466;SDS011;4270;48.148;11.648;2022-08-03T13:36:14;3.87;;;1.60;;
8466;SDS011;4270;48.148;11.648;2022-08-03T13:38:39;4.83;;;1.53;;
8466;SDS011;4270;48.148;11.648;2022-08-03T13:41:04;2.07;;;1.50;;
8466;SDS011;4270;48.148;11.648;2022-08-03T13:43:30;2.15;;;1.70;;
8466;SDS011;4270;48.148;11.648;2022-08-03T13:45:55;4.40;;;1.47;;
8466;SDS011;4270;48.148;11.648;2022-08-03T13:48:20;1.70;;;1.33;;
8466;SDS011;4270;48.148;11.648;2022-08-03T13:50:45;1.15;;;1.05;;
8466;SDS011;4270;48.148;11.648;2022-08-03T13:53:11;3.37;;;1.73;;
8466;SDS011;4270;48.148;11.648;2022-08-03T13:55:36;1.50;;;1.40;;
8466;SDS011;4270;48.148;11.648;2022-08-03T13:58:01;5.27;;;1.87;;
8466;SDS011;4270;48.148;11.648;2022-08-03T14:00:26;1.67;;;1.40;;
8466;SDS011;4270;48.148;11.648;2022-08-03T14:02:51;2.03;;;1.20;;
8466;SDS011;4270;48.148;11.648;2022-08-03T14:05:17;3.07;;;1.40;;
8466;SDS011;4270;48.148;11.648;2022-08-03T14:07:42;1.80;;;1.27;;
8466;SDS011;4270;48.148;11.648;2022-08-03T14:10:07;1.40;;;1.30;;
8466;SDS011;4270;48.148;11.648;2022-08-03T14:12:33;2.10;;;1.40;;
8466;SDS011;4270;48.148;11.648;2022-08-03T14:14:58;1.87;;;1.63;;
8466;SDS011;4270;48.148;11.648;2022-08-03T14:17:24;1.70;;;1.60;;
8466;SDS011;4270;48.148;11.648;2022-08-03T14:19:49;1.50;;;1.40;;
8466;SDS011;4270;48.148;11.648;2022-08-03T14:22:14;1.60;;;1.50;;
8466;SDS011;4270;48.148;11.648;2022-08-03T14:24:39;1.20;;;1.10;;
8466;SDS011;4270;48.148;11.648;2022-08-03T14:27:04;2.15;;;1.10;;
8466;SDS011;4270;48.148;11.648;2022-08-03T14:29:29;1.60;;;1.35;;
8466;SDS011;4270;48.148;11.648;2022-08-03T14:31:55;4.30;;;2.00;;
8466;SDS011;4270;48.148;11.648;2022-08-03T14:34:20;2.37;;;1.73;;
8466;SDS011;4270;48.148;11.648;2022-08-03T14:36:45;2.10;;;1.43;;
8466;SDS011;4270;48.148;11.648;2022-08-03T14:39:11;1.30;;;1.20;;
8466;SDS011;4270;48.148;11.648;2022-08-03T14:41:36;2.33;;;1.30;;
8466;SDS011;4270;48.148;11.648;2022-08-03T14:44:01;1.87;;;1.50;;
8466;SDS011;4270;48.148;11.648;2022-08-03T14:46:26;2.33;;;1.30;;
8466;SDS011;4270;48.148;11.648;2022-08-03T14:48:52;3.40;;;1.10;;
8466;SDS011;4270;48.148;11.648;2022-08-03T14:51:17;2.90;;;1.60;;
8466;SDS011;4270;48.148;11.648;2022-08-03T14:53:43;3.60;;;1.33;;
8466;SDS011;4270;48.148;11.648;2022-08-03T14:56:08;2.27;;;1.50;;
8466;SDS011;4270;48.148;11.648;2022-08-03T14:58:33;3.10;;;1.43;;
8466;SDS011;4270;48.148;11.648;2022-08-03T15:00:58;2.30;;;2.00;;
8466;SDS011;4270;48.148;11.648;2022-08-03T15:03:23;2.25;;;2.05;;
8466;SDS011;4270;48.148;11.648;2022-08-03T15:05:49;1.63;;;1.27;;
8466;SDS011;4270;48.148;11.648;2022-08-03T15:08:14;2.43;;;1.63;;
8466;SDS011;4270;48.148;11.648;2022-08-03T15:10:40;1.30;;;1.20;;
8466;SDS011;4270;48.148;11.648;2022-08-03T15:13:05;5.00;;;1.80;;
8466;SDS011;4270;48.148;11.648;2022-08-03T15:15:30;2.07;;;1.40;;
8466;SDS011;4270;48.148;11.648;2022-08-03T15:17:55;1.43;;;1.30;;
8466;SDS011;4270;48.148;11.648;2022-08-03T15:20:21;3.60;;;1.87;;
8466;SDS011;4270;48.148;11.648;2022-08-03T15:22:46;2.80;;;1.40;;
8466;SDS011;4270;48.148;11.648;2022-08-03T15:25:11;1.60;;;1.40;;
8466;SDS011;4270;48.148;11.648;2022-08-03T15:27:37;4.93;;;1.37;;
8466;SDS011;4270;48.148;11.648;2022-08-03T15:30:02;9.53;;;1.83;;
8466;SDS011;4270;48.148;11.648;2022-08-03T15:32:30;3.97;;;1.73;;
8466;SDS011;4270;48.148;11.648;2022-08-03T15:34:55;2.40;;;1.30;;
8466;SDS011;4270;48.148;11.648;2022-08-03T15:37:20;2.50;;;1.33;;
8466;SDS011;4270;48.148;11.648;2022-08-03T15:39:46;2.70;;;1.70;;
8466;SDS011;4270;48.148;11.648;2022-08-03T15:42:11;4.53;;;1.70;;
8466;SDS011;4270;48.148;11.648;2022-08-03T15:44:36;2.25;;;1.25;;
8466;SDS011;4270;48.148;11.648;2022-08-03T15:47:01;2.35;;;1.30;;
8466;SDS011;4270;48.148;11.648;2022-08-03T15:49:26;2.83;;;2.50;;
8466;SDS011;4270;48.148;11.648;2022-08-03T15:51:51;4.17;;;2.07;;
8466;SDS011;4270;48.148;11.648;2022-08-03T15:54:17;2.37;;;2.13;;
8466;SDS011;4270;48.148;11.648;2022-08-03T15:56:42;4.00;;;1.90;;
8466;SDS011;4270;48.148;11.648;2022-08-03T15:59:09;1.63;;;1.53;;
8466;SDS011;4270;48.148;11.648;2022-08-03T16:01:34;3.13;;;1.57;;
8466;SDS011;4270;48.148;11.648;2022-08-03T16:03:59;1.47;;;1.07;;
8466;SDS011;4270;48.148;11.648;2022-08-03T16:06:25;2.70;;;1.47;;
8466;SDS011;4270;48.148;11.648;2022-08-03T16:08:50;2.70;;;1.43;;
8466;SDS011;4270;48.148;11.648;2022-08-03T16:11:15;2.13;;;1.30;;
8466;SDS011;4270;48.148;11.648;2022-08-03T16:13:40;2.43;;;1.40;;
8466;SDS011;4270;48.148;11.648;2022-08-03T16:16:05;1.67;;;1.40;;
8466;SDS011;4270;48.148;11.648;2022-08-03T16:18:31;1.77;;;1.37;;
8466;SDS011;4270;48.148;11.648;2022-08-03T16:20:56;4.63;;;1.40;;
8466;SDS011;4270;48.148;11.648;2022-08-03T16:23:22;2.40;;;1.60;;
8466;SDS011;4270;48.148;11.648;2022-08-03T16:25:47;3.60;;;1.27;;
8466;SDS011;4270;48.148;11.648;2022-08-03T16:28:12;2.50;;;1.27;;
8466;SDS011;4270;48.148;11.648;2022-08-03T16:30:38;1.43;;;1.33;;
8466;SDS011;4270;48.148;11.648;2022-08-03T16:33:03;5.90;;;1.33;;
8466;SDS011;4270;48.148;11.648;2022-08-03T16:35:29;1.60;;;1.40;;
8466;SDS011;4270;48.148;11.648;2022-08-03T16:37:54;9.83;;;2.27;;
8466;SDS011;4270;48.148;11.648;2022-08-03T16:40:19;4.03;;;2.13;;
8466;SDS011;4270;48.148;11.648;2022-08-03T16:42:45;2.23;;;1.70;;
8466;SDS011;4270;48.148;11.648;2022-08-03T16:45:10;1.70;;;1.47;;
8466;SDS011;4270;48.148;11.648;2022-08-03T16:47:35;5.27;;;2.00;;
8466;SDS011;4270;48.148;11.648;2022-08-03T16:50:00;3.00;;;2.57;;
8466;SDS011;4270;48.148;11.648;2022-08-03T16:52:26;3.70;;;2.20;;
8466;SDS011;4270;48.148;11.648;2022-08-03T16:54:52;4.33;;;2.53;;
8466;SDS011;4270;48.148;11.648;2022-08-03T16:57:21;5.10;;;2.30;;
8466;SDS011;4270;48.148;11.648;2022-08-03T16:59:46;2.83;;;2.00;;
8466;SDS011;4270;48.148;11.648;2022-08-03T17:02:15;2.20;;;2.00;;
8466;SDS011;4270;48.148;11.648;2022-08-03T17:04:42;6.30;;;1.90;;
8466;SDS011;4270;48.148;11.648;2022-08-03T17:07:07;5.37;;;1.80;;
8466;SDS011;4270;48.148;11.648;2022-08-03T17:09:33;4.80;;;1.60;;
8466;SDS011;4270;48.148;11.648;2022-08-03T17:11:58;4.97;;;1.60;;
8466;SDS011;4270;48.148;11.648;2022-08-03T17:14:23;2.30;;;1.60;;
8466;SDS011;4270;48.148;11.648;2022-08-03T17:16:49;3.00;;;2.20;;
8466;SDS011;4270;48.148;11.648;2022-08-03T17:19:15;2.50;;;2.10;;
8466;SDS011;4270;48.148;11.648;2022-08-03T17:21:48;3.97;;;3.67;;
8466;SDS011;4270;48.148;11.648;2022-08-03T17:24:21;14.93;;;13.50;;
8466;SDS011;4270;48.148;11.648;2022-08-03T17:26:50;8.77;;;7.87;;
8466;SDS011;4270;48.148;11.648;2022-08-03T17:29:17;4.87;;;4.43;;
8466;SDS011;4270;48.148;11.648;2022-08-03T17:31:43;4.90;;;4.40;;
8466;SDS011;4270;48.148;11.648;2022-08-03T17:34:08;2.70;;;2.50;;
8466;SDS011;4270;48.148;11.648;2022-08-03T17:36:34;4.37;;;4.03;;
8466;SDS011;4270;48.148;11.648;2022-08-03T17:38:59;12.10;;;10.87;;
8466;SDS011;4270;48.148;11.648;2022-08-03T17:41:26;11.23;;;9.00;;
8466;SDS011;4270;48.148;11.648;2022-08-03T17:43:51;6.73;;;5.53;;
8466;SDS011;4270;48.148;11.648;2022-08-03T17:46:17;8.40;;;7.10;;
8466;SDS011;4270;48.148;11.648;2022-08-03T17:48:42;8.37;;;7.50;;
